createdAt,value
2022-09-13T00:00:41.292Z,16.04
2022-09-13T00:01:41.246Z,16.02
2022-09-13T00:02:41.240Z,16.10
2022-09-13T00:03:41.194Z,16.09
2022-09-13T00:04:41.195Z,16.01
2022-09-13T00:05:41.190Z,16.09
2022-09-13T00:06:41.199Z,16.04
2022-09-13T00:07:41.209Z,16.13
2022-09-13T00:08:41.186Z,16.10
2022-09-13T00:09:41.205Z,16.08
2022-09-13T00:10:41.202Z,16.10
2022-09-13T00:11:41.187Z,15.98
2022-09-13T00:12:41.198Z,16.00
2022-09-13T00:13:41.185Z,16.00
2022-09-13T00:14:41.190Z,16.02
2022-09-13T00:15:41.181Z,16.09
2022-09-13T00:16:41.223Z,16.00
2022-09-13T00:17:41.177Z,16.08
2022-09-13T00:18:41.190Z,16.12
2022-09-13T00:19:41.190Z,16.01
2022-09-13T00:20:41.181Z,16.00
2022-09-13T00:21:41.178Z,15.95
2022-09-13T00:22:41.207Z,15.94
2022-09-13T00:23:41.190Z,15.97
2022-09-13T00:24:41.175Z,16.01
2022-09-13T00:25:41.177Z,16.01
2022-09-13T00:26:41.163Z,15.97
2022-09-13T00:27:41.204Z,15.97
2022-09-13T00:28:41.162Z,16.04
2022-09-13T00:29:41.169Z,16.00
2022-09-13T00:30:41.161Z,15.95
2022-09-13T00:31:41.246Z,15.97
2022-09-13T00:32:41.187Z,16.00
2022-09-13T00:33:41.153Z,16.01
2022-09-13T00:34:41.150Z,15.97
2022-09-13T00:35:41.151Z,15.94
2022-09-13T00:36:41.157Z,15.91
2022-09-13T00:37:41.152Z,15.91
2022-09-13T00:38:41.279Z,15.94
2022-09-13T00:39:41.166Z,15.90
2022-09-13T00:40:41.142Z,15.90
2022-09-13T00:41:41.140Z,15.84
2022-09-13T00:42:41.150Z,15.80
2022-09-13T00:43:41.150Z,15.86
2022-09-13T00:44:41.138Z,15.91
2022-09-13T00:45:41.171Z,15.83
2022-09-13T00:46:41.136Z,15.84
2022-09-13T00:47:41.167Z,15.83
2022-09-13T00:48:41.134Z,15.86
2022-09-13T00:49:41.135Z,15.77
2022-09-13T00:50:41.166Z,15.80
2022-09-13T00:51:41.157Z,15.84
2022-09-13T00:52:46.117Z,15.91
2022-09-13T00:53:41.130Z,15.83
2022-09-13T00:54:41.129Z,15.86
2022-09-13T00:55:41.123Z,15.84
2022-09-13T00:56:41.149Z,15.84
2022-09-13T00:57:41.125Z,15.83
2022-09-13T00:58:41.128Z,15.75
2022-09-13T00:59:41.113Z,15.77
2022-09-13T01:00:41.230Z,15.80
2022-09-13T01:01:41.112Z,15.70
2022-09-13T01:02:41.114Z,15.75
2022-09-13T01:03:41.142Z,15.79
2022-09-13T01:04:41.110Z,15.83
2022-09-13T01:05:41.107Z,15.79
2022-09-13T01:06:41.112Z,15.76
2022-09-13T01:07:41.103Z,15.72
2022-09-13T01:08:41.103Z,15.72
2022-09-13T01:09:41.107Z,15.68
2022-09-13T01:10:41.121Z,15.75
2022-09-13T01:11:41.096Z,15.76
2022-09-13T01:12:41.101Z,15.72
2022-09-13T01:13:41.137Z,15.72
2022-09-13T01:14:41.100Z,15.76
2022-09-13T01:15:41.108Z,15.76
2022-09-13T01:16:43.744Z,15.72
2022-09-13T01:17:41.092Z,15.67
2022-09-13T01:18:41.094Z,15.67
2022-09-13T01:19:41.094Z,15.68
2022-09-13T01:20:41.090Z,15.65
2022-09-13T01:21:41.089Z,15.61
2022-09-13T01:22:41.104Z,15.59
2022-09-13T01:23:41.088Z,15.58
2022-09-13T01:24:41.074Z,15.75
2022-09-13T01:25:41.087Z,15.65
2022-09-13T01:26:41.191Z,15.64
2022-09-13T01:27:41.071Z,15.65
2022-09-13T01:28:41.073Z,15.59
2022-09-13T01:29:41.067Z,15.61
2022-09-13T01:30:41.079Z,15.65
2022-09-13T01:31:41.089Z,15.70
2022-09-13T01:32:41.074Z,15.59
2022-09-13T01:33:41.070Z,15.59
2022-09-13T01:34:41.065Z,15.64
2022-09-13T01:35:41.066Z,15.61
2022-09-13T01:36:41.069Z,15.59
2022-09-13T01:37:41.070Z,15.57
2022-09-13T01:38:41.061Z,15.62
2022-09-13T01:39:41.094Z,15.61
2022-09-13T01:40:41.059Z,15.67
2022-09-13T01:41:41.052Z,15.64
2022-09-13T01:42:41.060Z,15.58
2022-09-13T01:43:41.050Z,15.55
2022-09-13T01:44:41.049Z,15.64
2022-09-13T01:45:41.082Z,15.55
2022-09-13T01:46:41.044Z,15.61
2022-09-13T01:47:41.038Z,15.58
2022-09-13T01:48:41.041Z,15.61
2022-09-13T01:49:41.073Z,15.57
2022-09-13T01:50:41.037Z,15.58
2022-09-13T01:51:41.047Z,15.55
2022-09-13T01:52:41.030Z,15.62
2022-09-13T01:53:41.029Z,15.55
2022-09-13T01:54:41.032Z,15.55
2022-09-13T01:55:41.040Z,15.58
2022-09-13T01:56:41.027Z,15.58
2022-09-13T01:57:41.033Z,15.61
2022-09-13T01:58:41.037Z,15.54
2022-09-13T01:59:41.031Z,15.55
2022-09-13T02:00:41.025Z,15.52
2022-09-13T02:01:41.023Z,15.46
2022-09-13T02:02:41.054Z,15.51
2022-09-13T02:03:41.036Z,15.52
2022-09-13T02:04:41.012Z,15.44
2022-09-13T02:05:41.014Z,15.52
2022-09-13T02:06:41.027Z,15.40
2022-09-13T02:07:41.013Z,15.54
2022-09-13T02:08:41.005Z,15.37
2022-09-13T02:09:41.013Z,15.37
2022-09-13T02:10:41.008Z,15.35
2022-09-13T02:11:41.008Z,15.35
2022-09-13T02:12:41.001Z,15.36
2022-09-13T02:13:41.021Z,15.35
2022-09-13T02:14:40.996Z,15.42
2022-09-13T02:15:40.995Z,15.35
2022-09-13T02:16:41.064Z,15.37
2022-09-13T02:17:40.992Z,15.40
2022-09-13T02:18:40.991Z,15.31
2022-09-13T02:19:40.988Z,15.43
2022-09-13T02:20:40.996Z,15.36
2022-09-13T02:21:41.002Z,15.31
2022-09-13T02:22:40.993Z,15.35
2022-09-13T02:23:40.995Z,15.36
2022-09-13T02:24:40.987Z,15.33
2022-09-13T02:25:40.981Z,15.29
2022-09-13T02:26:40.984Z,15.29
2022-09-13T02:27:40.992Z,15.27
2022-09-13T02:28:41.005Z,15.27
2022-09-13T02:29:40.977Z,15.39
2022-09-13T02:30:40.980Z,15.24
2022-09-13T02:31:41.027Z,15.31
2022-09-13T02:32:40.973Z,15.36
2022-09-13T02:33:40.998Z,15.33
2022-09-13T02:34:40.958Z,15.35
2022-09-13T02:35:40.961Z,15.27
2022-09-13T02:36:40.960Z,15.29
2022-09-13T02:37:40.967Z,15.22
2022-09-13T02:38:40.960Z,15.31
2022-09-13T02:39:41.046Z,15.36
2022-09-13T02:40:40.967Z,15.29
2022-09-13T02:41:40.950Z,15.35
2022-09-13T02:42:40.946Z,15.25
2022-09-13T02:43:40.945Z,15.31
2022-09-13T02:44:40.947Z,15.27
2022-09-13T02:45:40.992Z,15.28
2022-09-13T02:46:41.026Z,15.28
2022-09-13T02:47:40.940Z,15.27
2022-09-13T02:48:40.934Z,15.21
2022-09-13T02:49:40.938Z,15.21
2022-09-13T02:50:40.935Z,15.31
2022-09-13T02:51:40.936Z,15.18
2022-09-13T02:52:40.931Z,15.22
2022-09-13T02:53:40.930Z,15.18
2022-09-13T02:54:40.920Z,15.15
2022-09-13T02:55:40.924Z,15.21
2022-09-13T02:56:40.917Z,15.18
2022-09-13T02:57:40.927Z,15.22
2022-09-13T02:58:40.914Z,15.18
2022-09-13T02:59:40.912Z,15.21
2022-09-13T03:00:40.916Z,15.21
2022-09-13T03:01:40.924Z,15.21
2022-09-13T03:02:40.912Z,15.17
2022-09-13T03:03:40.914Z,15.21
2022-09-13T03:04:40.907Z,15.17
2022-09-13T03:05:40.908Z,15.14
2022-09-13T03:06:40.900Z,15.21
2022-09-13T03:07:40.916Z,15.14
2022-09-13T03:08:40.913Z,15.18
2022-09-13T03:09:40.898Z,15.11
2022-09-13T03:10:40.893Z,15.09
2022-09-13T03:11:40.896Z,15.10
2022-09-13T03:12:40.901Z,15.15
2022-09-13T03:13:40.886Z,15.11
2022-09-13T03:14:40.917Z,15.09
2022-09-13T03:15:40.887Z,15.14
2022-09-13T03:16:40.964Z,15.10
2022-09-13T03:17:40.877Z,15.11
2022-09-13T03:18:40.965Z,15.09
2022-09-13T03:19:40.882Z,15.10
2022-09-13T03:20:40.887Z,15.09
2022-09-13T03:21:40.868Z,15.03
2022-09-13T03:22:40.870Z,15.06
2022-09-13T03:23:40.865Z,15.02
2022-09-13T03:24:40.876Z,15.03
2022-09-13T03:25:40.868Z,15.04
2022-09-13T03:26:40.861Z,14.99
2022-09-13T03:27:40.864Z,15.02
2022-09-13T03:28:40.882Z,14.99
2022-09-13T03:29:40.865Z,14.99
2022-09-13T03:30:40.853Z,14.97
2022-09-13T03:31:40.906Z,15.03
2022-09-13T03:32:40.851Z,14.99
2022-09-13T03:33:40.843Z,14.94
2022-09-13T03:34:40.937Z,14.99
2022-09-13T03:35:40.849Z,14.97
2022-09-13T03:36:40.842Z,14.94
2022-09-13T03:37:40.847Z,15.00
2022-09-13T03:38:40.857Z,15.00
2022-09-13T03:39:40.859Z,14.96
2022-09-13T03:40:40.838Z,14.94
2022-09-13T03:41:40.844Z,14.99
2022-09-13T03:42:40.838Z,15.03
2022-09-13T03:43:40.843Z,14.94
2022-09-13T03:44:40.840Z,15.03
2022-09-13T03:45:40.855Z,14.99
2022-09-13T03:46:40.819Z,14.96
2022-09-13T03:47:40.827Z,14.97
2022-09-13T03:48:40.829Z,14.97
2022-09-13T03:49:40.841Z,14.97
2022-09-13T03:50:40.814Z,14.96
2022-09-13T03:51:40.812Z,14.99
2022-09-13T03:52:45.802Z,15.02
2022-09-13T03:53:40.816Z,14.96
2022-09-13T03:54:40.810Z,14.92
2022-09-13T03:55:40.811Z,14.99
2022-09-13T03:56:40.816Z,14.96
2022-09-13T03:57:40.818Z,14.96
2022-09-13T03:58:40.803Z,14.97
2022-09-13T03:59:40.801Z,14.96
2022-09-13T04:00:40.801Z,14.96
2022-09-13T04:01:40.814Z,15.03
2022-09-13T04:02:40.800Z,15.02
2022-09-13T04:03:40.790Z,14.99
2022-09-13T04:04:40.783Z,14.96
2022-09-13T04:05:40.801Z,14.94
2022-09-13T04:06:40.779Z,14.99
2022-09-13T04:07:40.785Z,14.94
2022-09-13T04:08:40.774Z,14.99
2022-09-13T04:09:40.774Z,14.96
2022-09-13T04:10:40.777Z,14.89
2022-09-13T04:11:40.787Z,14.94
2022-09-13T04:12:40.775Z,14.92
2022-09-13T04:13:40.789Z,14.88
2022-09-13T04:14:40.768Z,14.88
2022-09-13T04:15:40.770Z,14.84
2022-09-13T04:16:40.818Z,14.88
2022-09-13T04:17:40.766Z,14.92
2022-09-13T04:18:40.759Z,14.86
2022-09-13T04:19:40.753Z,14.88
2022-09-13T04:20:40.758Z,14.85
2022-09-13T04:21:40.769Z,14.85
2022-09-13T04:22:40.762Z,14.82
2022-09-13T04:23:40.775Z,14.88
2022-09-13T04:24:40.766Z,14.88
2022-09-13T04:25:40.766Z,14.88
2022-09-13T04:26:40.739Z,14.91
2022-09-13T04:27:40.745Z,14.92
2022-09-13T04:28:40.737Z,14.94
2022-09-13T04:29:40.765Z,14.92
2022-09-13T04:30:42.740Z,14.97
2022-09-13T04:31:40.783Z,14.92
2022-09-13T04:32:40.738Z,14.94
2022-09-13T04:33:40.731Z,14.91
2022-09-13T04:34:40.730Z,14.86
2022-09-13T04:35:40.729Z,14.91
2022-09-13T04:36:40.721Z,14.89
2022-09-13T04:37:40.736Z,14.92
2022-09-13T04:38:40.724Z,14.89
2022-09-13T04:39:40.768Z,14.85
2022-09-13T04:40:40.711Z,14.91
2022-09-13T04:41:40.733Z,14.92
2022-09-13T04:42:40.709Z,14.94
2022-09-13T04:43:40.709Z,15.00
2022-09-13T04:44:40.719Z,14.96
2022-09-13T04:45:40.791Z,14.91
2022-09-13T04:46:40.706Z,14.92
2022-09-13T04:47:40.705Z,14.92
2022-09-13T04:48:40.726Z,14.99
2022-09-13T04:49:40.694Z,15.00
2022-09-13T04:50:40.700Z,14.99
2022-09-13T04:51:40.801Z,15.00
2022-09-13T04:52:40.687Z,15.00
2022-09-13T04:53:40.689Z,14.97
2022-09-13T04:54:40.711Z,14.88
2022-09-13T04:55:40.681Z,14.94
2022-09-13T04:56:40.678Z,14.94
2022-09-13T04:57:40.691Z,14.91
2022-09-13T04:58:40.682Z,14.91
2022-09-13T04:59:40.704Z,14.97
2022-09-13T05:00:40.715Z,14.97
2022-09-13T05:01:40.793Z,15.04
2022-09-13T05:02:40.675Z,14.94
2022-09-13T05:03:40.678Z,14.97
2022-09-13T05:04:40.675Z,14.94
2022-09-13T05:05:40.667Z,14.97
2022-09-13T05:06:40.669Z,15.00
2022-09-13T05:07:40.664Z,15.02
2022-09-13T05:08:40.662Z,14.92
2022-09-13T05:09:40.662Z,14.99
2022-09-13T05:10:40.738Z,14.97
2022-09-13T05:11:40.655Z,15.07
2022-09-13T05:12:40.665Z,15.03
2022-09-13T05:13:40.675Z,15.04
2022-09-13T05:14:40.648Z,15.02
2022-09-13T05:15:40.705Z,15.09
2022-09-13T05:16:40.646Z,15.09
2022-09-13T05:17:40.635Z,15.10
2022-09-13T05:18:44.967Z,15.10
2022-09-13T05:19:40.665Z,15.09
2022-09-13T05:20:40.642Z,15.10
2022-09-13T05:21:40.631Z,15.10
2022-09-13T05:22:40.636Z,15.14
2022-09-13T05:23:40.644Z,15.09
2022-09-13T05:24:40.618Z,15.10
2022-09-13T05:25:40.631Z,15.09
2022-09-13T05:26:40.634Z,15.10
2022-09-13T05:27:40.620Z,15.09
2022-09-13T05:28:40.614Z,15.09
2022-09-13T05:29:40.630Z,15.14
2022-09-13T05:30:42.444Z,15.14
2022-09-13T05:31:40.700Z,15.17
2022-09-13T05:32:40.636Z,15.31
2022-09-13T05:33:40.612Z,15.27
2022-09-13T05:34:40.618Z,15.25
2022-09-13T05:35:40.620Z,15.27
2022-09-13T05:36:40.600Z,15.29
2022-09-13T05:37:40.617Z,15.33
2022-09-13T05:38:40.596Z,15.25
2022-09-13T05:40:07.460Z,15.24
2022-09-13T05:40:40.669Z,15.29
2022-09-13T05:41:40.589Z,15.28
2022-09-13T05:42:40.592Z,15.24
2022-09-13T05:43:40.611Z,15.28
2022-09-13T05:44:40.601Z,15.24
2022-09-13T05:45:40.590Z,15.24
2022-09-13T05:46:40.590Z,15.27
2022-09-13T05:47:40.578Z,15.25
2022-09-13T05:48:40.578Z,15.22
2022-09-13T05:49:56.706Z,15.21
2022-09-13T05:50:58.458Z,15.28
2022-09-13T05:51:40.582Z,15.29
2022-09-13T05:52:40.565Z,15.21
2022-09-13T05:53:40.625Z,15.25
2022-09-13T05:54:40.572Z,15.24
2022-09-13T05:55:40.569Z,15.25
2022-09-13T05:56:40.587Z,15.31
2022-09-13T05:57:40.575Z,15.29
2022-09-13T05:58:40.573Z,15.29
2022-09-13T05:59:40.564Z,15.31
2022-09-13T06:00:40.552Z,15.33
2022-09-13T06:01:40.669Z,15.31
2022-09-13T06:02:40.627Z,15.27
2022-09-13T06:03:40.558Z,15.33
2022-09-13T06:04:40.563Z,15.25
2022-09-13T06:05:40.550Z,15.28
2022-09-13T06:06:40.560Z,15.27
2022-09-13T06:07:40.543Z,15.29
2022-09-13T06:08:40.569Z,15.29
2022-09-13T06:09:40.558Z,15.22
2022-09-13T06:10:40.538Z,15.27
2022-09-13T06:11:40.540Z,15.31
2022-09-13T06:12:40.539Z,15.29
2022-09-13T06:13:40.541Z,15.25
2022-09-13T06:14:40.630Z,15.33
2022-09-13T06:15:43.357Z,15.29
2022-09-13T06:16:40.530Z,15.29
2022-09-13T06:17:40.528Z,15.24
2022-09-13T06:18:40.544Z,15.25
2022-09-13T06:19:40.526Z,15.29
2022-09-13T06:20:40.533Z,15.35
2022-09-13T06:21:40.525Z,15.29
2022-09-13T06:22:40.512Z,15.29
2022-09-13T06:23:40.525Z,15.29
2022-09-13T06:24:40.515Z,15.25
2022-09-13T06:25:40.524Z,15.35
2022-09-13T06:26:40.517Z,15.27
2022-09-13T06:27:40.523Z,15.29
2022-09-13T06:28:40.504Z,15.27
2022-09-13T06:29:40.510Z,15.28
2022-09-13T06:30:40.501Z,15.18
2022-09-13T06:31:40.540Z,15.27
2022-09-13T06:32:40.505Z,15.25
2022-09-13T06:33:40.504Z,15.29
2022-09-13T06:34:40.490Z,15.27
2022-09-13T06:35:40.493Z,15.28
2022-09-13T06:36:40.493Z,15.28
2022-09-13T06:37:40.517Z,15.35
2022-09-13T06:38:40.495Z,15.31
2022-09-13T06:39:40.522Z,15.27
2022-09-13T06:40:40.494Z,15.21
2022-09-13T06:41:40.497Z,15.27
2022-09-13T06:42:40.479Z,15.24
2022-09-13T06:43:40.475Z,15.28
2022-09-13T06:44:40.493Z,15.25
2022-09-13T06:45:40.479Z,15.29
2022-09-13T06:46:40.628Z,15.29
2022-09-13T06:47:40.470Z,15.31
2022-09-13T06:48:40.468Z,15.33
2022-09-13T06:49:40.467Z,15.37
2022-09-13T06:50:40.476Z,15.33
2022-09-13T06:51:40.487Z,15.36
2022-09-13T06:52:40.479Z,15.39
2022-09-13T06:53:40.459Z,15.39
2022-09-13T06:54:40.520Z,15.33
2022-09-13T06:55:40.471Z,15.44
2022-09-13T06:56:40.455Z,15.35
2022-09-13T06:57:40.471Z,15.46
2022-09-13T06:58:40.485Z,15.47
2022-09-13T06:59:40.503Z,15.35
2022-09-13T07:00:40.564Z,15.46
2022-09-13T07:01:40.622Z,15.46
2022-09-13T07:02:40.473Z,15.51
2022-09-13T07:03:40.438Z,15.57
2022-09-13T07:04:40.444Z,15.47
2022-09-13T07:05:40.438Z,15.43
2022-09-13T07:06:40.461Z,15.51
2022-09-13T07:07:40.447Z,15.55
2022-09-13T07:08:40.442Z,15.61
2022-09-13T07:09:40.455Z,15.57
2022-09-13T07:10:40.432Z,15.62
2022-09-13T07:11:40.457Z,15.64
2022-09-13T07:12:40.476Z,15.61
2022-09-13T07:13:40.426Z,15.59
2022-09-13T07:14:40.476Z,15.62
2022-09-13T07:15:40.501Z,15.61
2022-09-13T07:16:40.421Z,15.62
2022-09-13T07:17:40.420Z,15.65
2022-09-13T07:18:40.421Z,15.67
2022-09-13T07:19:40.414Z,15.61
2022-09-13T07:20:40.427Z,15.70
2022-09-13T07:21:40.450Z,15.72
2022-09-13T07:22:40.416Z,15.65
2022-09-13T07:23:40.446Z,15.61
2022-09-13T07:24:40.438Z,15.72
2022-09-13T07:25:40.416Z,15.72
2022-09-13T07:26:40.431Z,15.64
2022-09-13T07:27:40.427Z,15.72
2022-09-13T07:28:40.426Z,15.75
2022-09-13T07:29:40.404Z,15.72
2022-09-13T07:30:40.597Z,15.65
2022-09-13T07:31:40.414Z,15.68
2022-09-13T07:32:40.410Z,15.64
2022-09-13T07:33:40.403Z,15.67
2022-09-13T07:34:40.422Z,15.70
2022-09-13T07:35:40.395Z,15.67
2022-09-13T07:36:40.398Z,15.77
2022-09-13T07:37:40.413Z,15.70
2022-09-13T07:38:40.404Z,15.73
2022-09-13T07:39:40.459Z,15.65
2022-09-13T07:40:40.395Z,15.75
2022-09-13T07:41:40.392Z,15.79
2022-09-13T07:42:40.383Z,15.77
2022-09-13T07:43:40.387Z,15.77
2022-09-13T07:44:40.397Z,15.79
2022-09-13T07:45:40.386Z,15.75
2022-09-13T07:46:40.433Z,15.79
2022-09-13T07:47:40.395Z,15.80
2022-09-13T07:48:40.420Z,15.79
2022-09-13T07:49:40.394Z,15.80
2022-09-13T07:50:40.502Z,15.76
2022-09-13T07:51:40.390Z,15.82
2022-09-13T07:52:40.373Z,15.79
2022-09-13T07:53:40.375Z,15.83
2022-09-13T07:54:40.372Z,15.88
2022-09-13T07:55:40.368Z,15.90
2022-09-13T07:56:40.377Z,15.90
2022-09-13T07:57:40.365Z,15.91
2022-09-13T07:58:40.366Z,15.97
2022-09-13T07:59:40.382Z,16.02
2022-09-13T08:00:40.401Z,15.97
2022-09-13T08:01:40.547Z,16.02
2022-09-13T08:02:40.463Z,16.05
2022-09-13T08:03:40.364Z,15.98
2022-09-13T08:04:40.358Z,16.01
2022-09-13T08:05:40.401Z,16.10
2022-09-13T08:06:40.367Z,16.10
2022-09-13T08:07:40.362Z,16.10
2022-09-13T08:08:40.355Z,16.09
2022-09-13T08:09:40.374Z,16.12
2022-09-13T08:10:40.364Z,16.10
2022-09-13T08:11:40.390Z,16.13
2022-09-13T08:12:40.347Z,16.16
2022-09-13T08:13:40.386Z,16.17
2022-09-13T08:14:40.357Z,16.17
2022-09-13T08:15:40.473Z,16.21
2022-09-13T08:16:40.363Z,16.17
2022-09-13T08:17:40.346Z,16.17
2022-09-13T08:18:40.345Z,16.21
2022-09-13T08:19:40.344Z,16.23
2022-09-13T08:20:40.348Z,16.21
2022-09-13T08:21:40.352Z,16.23
2022-09-13T08:22:40.438Z,16.21
2022-09-13T08:23:40.349Z,16.35
2022-09-13T08:24:40.350Z,16.24
2022-09-13T08:25:40.363Z,16.28
2022-09-13T08:26:40.343Z,16.35
2022-09-13T08:27:40.338Z,16.36
2022-09-13T08:28:40.343Z,16.33
2022-09-13T08:29:40.336Z,16.35
2022-09-13T08:30:40.364Z,16.35
2022-09-13T08:31:40.339Z,16.36
2022-09-13T08:32:40.343Z,16.41
2022-09-13T08:33:45.549Z,16.33
2022-09-13T08:34:40.354Z,16.42
2022-09-13T08:35:40.344Z,16.47
2022-09-13T08:36:40.331Z,16.43
2022-09-13T08:37:40.344Z,16.50
2022-09-13T08:38:40.349Z,16.50
2022-09-13T08:39:40.397Z,16.50
2022-09-13T08:40:40.338Z,16.60
2022-09-13T08:41:40.347Z,16.53
2022-09-13T08:42:40.327Z,16.54
2022-09-13T08:43:40.326Z,16.65
2022-09-13T08:44:40.341Z,16.57
2022-09-13T08:45:40.329Z,16.68
2022-09-13T08:46:40.384Z,16.68
2022-09-13T08:47:40.331Z,16.81
2022-09-13T08:48:40.327Z,16.75
2022-09-13T08:49:40.384Z,16.81
2022-09-13T08:50:40.325Z,16.89
2022-09-13T08:51:40.327Z,17.02
2022-09-13T08:52:40.332Z,17.05
2022-09-13T08:53:40.345Z,17.08
2022-09-13T08:54:40.323Z,17.14
2022-09-13T08:55:40.353Z,17.09
2022-09-13T08:56:40.323Z,17.23
2022-09-13T08:57:40.327Z,17.22
2022-09-13T08:58:40.331Z,17.34
2022-09-13T08:59:40.325Z,17.42
2022-09-13T09:00:40.334Z,17.42
2022-09-13T09:01:40.372Z,17.57
2022-09-13T09:02:40.383Z,17.68
2022-09-13T09:03:40.327Z,17.64
2022-09-13T09:04:40.330Z,17.63
2022-09-13T09:05:40.327Z,17.70
2022-09-13T09:06:40.326Z,17.71
2022-09-13T09:07:40.333Z,17.76
2022-09-13T09:08:40.337Z,17.72
2022-09-13T09:09:40.333Z,17.78
2022-09-13T09:10:40.335Z,17.74
2022-09-13T09:11:40.344Z,17.70
2022-09-13T09:12:40.337Z,17.68
2022-09-13T09:13:40.342Z,17.64
2022-09-13T09:14:40.337Z,17.74
2022-09-13T09:15:40.386Z,17.68
2022-09-13T09:16:40.343Z,17.76
2022-09-13T09:17:40.337Z,17.78
2022-09-13T09:18:40.333Z,17.95
2022-09-13T09:19:40.337Z,17.94
2022-09-13T09:20:40.340Z,18.01
2022-09-13T09:21:40.357Z,18.08
2022-09-13T09:22:40.355Z,18.16
2022-09-13T09:23:40.366Z,18.19
2022-09-13T09:24:40.359Z,18.23
2022-09-13T09:25:40.346Z,18.23
2022-09-13T09:26:40.378Z,18.28
2022-09-13T09:27:40.369Z,18.34
2022-09-13T09:28:40.355Z,18.45
2022-09-13T09:29:40.356Z,18.31
2022-09-13T09:30:40.413Z,18.41
2022-09-13T09:31:40.368Z,18.37
2022-09-13T09:32:40.353Z,18.40
2022-09-13T09:33:40.384Z,18.58
2022-09-13T09:34:40.355Z,18.78
2022-09-13T09:35:40.362Z,18.81
2022-09-13T09:36:40.365Z,18.95
2022-09-13T09:37:40.358Z,18.90
2022-09-13T09:38:40.368Z,18.96
2022-09-13T09:39:40.399Z,19.09
2022-09-13T09:40:40.369Z,18.92
2022-09-13T09:41:40.369Z,18.90
2022-09-13T09:42:40.461Z,19.00
2022-09-13T09:43:40.393Z,18.98
2022-09-13T09:44:40.374Z,18.92
2022-09-13T09:45:40.399Z,18.90
2022-09-13T09:46:40.383Z,18.96
2022-09-13T09:47:40.427Z,18.92
2022-09-13T09:48:40.395Z,18.98
2022-09-13T09:49:40.455Z,18.93
2022-09-13T09:50:40.409Z,18.95
2022-09-13T09:51:40.400Z,18.89
2022-09-13T09:52:40.399Z,18.81
2022-09-13T09:53:40.406Z,18.95
2022-09-13T09:54:40.393Z,18.95
2022-09-13T09:55:40.391Z,18.93
2022-09-13T09:56:40.401Z,18.90
2022-09-13T09:57:40.410Z,18.90
2022-09-13T09:58:40.413Z,18.90
2022-09-13T09:59:40.409Z,18.77
2022-09-13T10:00:40.432Z,18.84
2022-09-13T10:01:40.470Z,18.78
2022-09-13T10:02:40.445Z,18.81
2022-09-13T10:03:40.409Z,18.86
2022-09-13T10:04:40.419Z,18.86
2022-09-13T10:05:40.419Z,18.89
2022-09-13T10:06:40.464Z,18.89
2022-09-13T10:07:40.417Z,18.84
2022-09-13T10:08:40.435Z,18.90
2022-09-13T10:09:40.420Z,19.02
2022-09-13T10:10:40.419Z,18.99
2022-09-13T10:11:40.426Z,19.15
2022-09-13T10:12:40.433Z,19.16
2022-09-13T10:13:40.448Z,19.19
2022-09-13T10:14:40.443Z,19.30
2022-09-13T10:15:40.432Z,19.16
2022-09-13T10:16:40.481Z,19.31
2022-09-13T10:17:40.452Z,19.22
2022-09-13T10:18:44.399Z,19.26
2022-09-13T10:19:40.437Z,19.21
2022-09-13T10:20:40.442Z,19.30
2022-09-13T10:21:40.451Z,19.27
2022-09-13T10:22:40.447Z,19.26
2022-09-13T10:23:40.457Z,19.29
2022-09-13T10:24:40.448Z,19.21
2022-09-13T10:25:42.832Z,19.26
2022-09-13T10:26:40.451Z,19.18
2022-09-13T10:27:40.491Z,19.27
2022-09-13T10:28:40.456Z,19.27
2022-09-13T10:29:40.462Z,19.18
2022-09-13T10:30:40.596Z,19.26
2022-09-13T10:31:40.458Z,19.22
2022-09-13T10:32:40.476Z,19.24
2022-09-13T10:33:40.465Z,19.16
2022-09-13T10:34:40.482Z,19.18
2022-09-13T10:35:40.474Z,19.15
2022-09-13T10:36:52.268Z,19.19
2022-09-13T10:37:40.487Z,19.22
2022-09-13T10:38:45.430Z,19.18
2022-09-13T10:39:40.520Z,19.18
2022-09-13T10:40:40.474Z,19.18
2022-09-13T10:41:40.486Z,19.29
2022-09-13T10:42:40.488Z,19.30
2022-09-13T10:43:40.501Z,19.31
2022-09-13T10:44:40.490Z,19.29
2022-09-13T10:45:40.523Z,19.33
2022-09-13T10:46:40.503Z,19.33
2022-09-13T10:47:40.505Z,19.33
2022-09-13T10:48:40.522Z,19.33
2022-09-13T10:49:40.501Z,19.30
2022-09-13T10:50:40.513Z,19.33
2022-09-13T10:51:40.498Z,19.31
2022-09-13T10:52:40.495Z,19.30
2022-09-13T10:53:40.502Z,19.37
2022-09-13T10:54:40.521Z,19.31
2022-09-13T10:55:40.522Z,19.41
2022-09-13T10:56:40.505Z,19.41
2022-09-13T10:57:40.514Z,19.33
2022-09-13T10:58:40.507Z,19.36
2022-09-13T10:59:40.512Z,19.41
2022-09-13T11:00:40.513Z,19.34
2022-09-13T11:01:40.830Z,19.31
2022-09-13T11:02:40.514Z,19.27
2022-09-13T11:03:40.519Z,19.27
2022-09-13T11:04:40.517Z,19.27
2022-09-13T11:05:40.520Z,19.22
2022-09-13T11:06:40.519Z,19.15
2022-09-13T11:07:40.542Z,19.24
2022-09-13T11:08:40.553Z,19.21
2022-09-13T11:09:40.552Z,19.27
2022-09-13T11:10:40.535Z,19.15
2022-09-13T11:11:40.528Z,19.21
2022-09-13T11:12:40.546Z,19.12
2022-09-13T11:13:44.512Z,19.15
2022-09-13T11:14:40.530Z,19.12
2022-09-13T11:15:40.561Z,19.12
2022-09-13T11:16:40.580Z,19.07
2022-09-13T11:17:40.570Z,19.16
2022-09-13T11:18:40.552Z,18.99
2022-09-13T11:19:40.549Z,19.04
2022-09-13T11:20:40.549Z,18.99
2022-09-13T11:21:40.544Z,18.99
2022-09-13T11:22:40.549Z,19.04
2022-09-13T11:23:40.541Z,18.93
2022-09-13T11:24:40.554Z,19.02
2022-09-13T11:25:40.549Z,19.07
2022-09-13T11:26:40.552Z,18.92
2022-09-13T11:27:40.553Z,18.90
2022-09-13T11:28:40.580Z,18.84
2022-09-13T11:29:40.599Z,18.88
2022-09-13T11:30:40.599Z,18.90
2022-09-13T11:31:40.682Z,18.81
2022-09-13T11:32:40.577Z,18.80
2022-09-13T11:33:40.576Z,18.75
2022-09-13T11:34:40.566Z,18.78
2022-09-13T11:35:40.604Z,18.74
2022-09-13T11:36:40.578Z,18.66
2022-09-13T11:37:40.578Z,18.68
2022-09-13T11:38:40.662Z,18.70
2022-09-13T11:39:40.616Z,18.70
2022-09-13T11:40:40.602Z,18.65
2022-09-13T11:41:40.563Z,18.66
2022-09-13T11:42:40.572Z,18.63
2022-09-13T11:43:40.563Z,18.58
2022-09-13T11:44:40.563Z,18.65
2022-09-13T11:45:40.599Z,18.59
2022-09-13T11:46:40.582Z,18.58
2022-09-13T11:47:40.579Z,18.55
2022-09-13T11:48:40.569Z,18.56
2022-09-13T11:49:40.564Z,18.53
2022-09-13T11:50:40.570Z,18.55
2022-09-13T11:51:40.580Z,18.53
2022-09-13T11:52:40.560Z,18.52
2022-09-13T11:53:40.624Z,18.53
2022-09-13T11:54:40.593Z,18.50
2022-09-13T11:55:40.574Z,18.50
2022-09-13T11:56:40.580Z,18.47
2022-09-13T11:57:40.581Z,18.41
2022-09-13T11:58:40.575Z,18.47
2022-09-13T11:59:40.602Z,18.40
2022-09-13T12:00:40.580Z,18.47
2022-09-13T12:01:40.598Z,18.49
2022-09-13T12:02:40.729Z,18.49
2022-09-13T12:03:40.584Z,18.53
2022-09-13T12:04:40.589Z,18.53
2022-09-13T12:05:40.571Z,18.52
2022-09-13T12:06:40.573Z,18.52
2022-09-13T12:07:40.574Z,18.49
2022-09-13T12:08:40.578Z,18.56
2022-09-13T12:09:40.575Z,18.53
2022-09-13T12:10:40.585Z,18.56
2022-09-13T12:11:40.576Z,18.55
2022-09-13T12:12:40.577Z,18.53
2022-09-13T12:13:40.575Z,18.52
2022-09-13T12:14:40.574Z,18.59
2022-09-13T12:15:40.571Z,18.55
2022-09-13T12:16:40.609Z,18.60
2022-09-13T12:17:40.591Z,18.56
2022-09-13T12:18:40.631Z,18.60
2022-09-13T12:19:40.604Z,18.60
2022-09-13T12:20:40.615Z,18.66
2022-09-13T12:21:40.608Z,18.66
2022-09-13T12:22:40.626Z,18.65
2022-09-13T12:23:40.585Z,18.68
2022-09-13T12:24:40.581Z,18.63
2022-09-13T12:25:40.578Z,18.74
2022-09-13T12:26:40.583Z,18.75
2022-09-13T12:27:40.712Z,18.73
2022-09-13T12:28:40.602Z,18.73
2022-09-13T12:29:40.588Z,18.71
2022-09-13T12:30:40.606Z,18.75
2022-09-13T12:31:40.608Z,18.73
2022-09-13T12:32:40.586Z,18.74
2022-09-13T12:33:40.627Z,18.71
2022-09-13T12:34:40.590Z,18.62
2022-09-13T12:35:40.588Z,18.66
2022-09-13T12:36:40.589Z,18.68
2022-09-13T12:37:40.598Z,18.68
2022-09-13T12:38:40.626Z,18.73
2022-09-13T12:39:40.666Z,18.66
2022-09-13T12:40:40.597Z,18.73
2022-09-13T12:41:40.591Z,18.71
2022-09-13T12:42:40.591Z,18.68
2022-09-13T12:43:40.607Z,18.68
2022-09-13T12:44:40.612Z,18.63
2022-09-13T12:45:40.681Z,18.62
2022-09-13T12:46:40.608Z,18.62
2022-09-13T12:47:40.609Z,18.63
2022-09-13T12:48:40.594Z,18.60
2022-09-13T12:49:40.597Z,18.66
2022-09-13T12:50:43.835Z,18.59
2022-09-13T12:51:40.602Z,18.60
2022-09-13T12:52:40.613Z,18.62